KSLR

Sulphur Springs Municipal Airport

Sulphur Springs, Texas, USA
METAR KSLR 170335Z AUTO 03006KT 10SM OVC021 11/11 A3029 RMK AO2 T01120105
Observed Flight Rules
Oct-17 @ 03:35 UTC (10 minutes ago) Marginal Visual Flight Rules
Wind Visibility Clouds
30° at 6 knots 10 miles
  • Overcast at 2,100' AGL
Temperatures Readings
Current 11°C / 52°F
Dewpoint 11°C / 52°F
Humidity 100%
Altimeter 30.29" Hg
Pressure 1026 hPa
Elevation 149
METAR KSLR 170335Z AUTO 03006KT 10SM OVC021 11/11 A3029 RMK AO2 T01120105
Observed Flight Rules
Oct-17 @ 03:35 UTC
(10 minutes ago)
MVFR
Wind Visibility
30° at 6 knots 10 miles
Clouds
  • Overcast at 2,100' AGL
Temperature Dewpoint
11°C / 52°F 11°C / 52°F
Humidity Altimeter Pressure
100% 30.29" Hg 1026 hPa